Airfield :
LOGIN :

Register | Disclaimer

   EN    FR    IT 

 










Legend :    VFR   Marginal VFR   IFR   Intensive IFR   Very Intensive IFR
Visi :
Ceiling :
>= 8 km
>= 3000ft
5 to 8 km
1000 to 3000 ft
1500m to 5 km
500 to 1000 ft
800 to 1500m
200 to 500 ft
< 800m
< 200 ft
Symbols :   Thunderstorms  Fog  Heavy snow  Heavy precipitations  Wind > 20 kt
SIGMETs :     Misc.  Thunderstorms  Icing  Turbulence  Mountain Waves  Volcanic Ashes






- Airport Elevation : 101 ft
- IATA code : HAD


ESMT - Halmstad

CURRENT METAR :
  • 011050Z 26014KT 9999 FEW011 SCT018 BKN030 06/04 Q1010

EXPIRED METARs :
  • 011020Z 25015KT 9999 FEW010 SCT017 BKN026 06/04 Q1010
  • 010950Z 27014KT 9999 FEW010 SCT019 BKN023 06/04 Q1010
  • 010920Z 26013KT 9999 SCT009 BKN015 05/04 Q1010
  • 010850Z 27012KT 9999 FEW014 OVC020 05/03 Q1011
  • 010820Z 27013KT 9999 FEW012 SCT016 OVC020 05/03 Q1011
  • 010750Z 26011KT 9999 FEW011 SCT015 BKN019 05/03 Q1011

TAF TAF ESMT
Valid from the 01 at 09:00 until the 01 at 15:00 UTC


010808Z 0109/0115 28015KT 9999 BKN020
TEMPO 0109/0112 SCT020TCU
TEMPO 0112/0115 28016G28KT FEW020TCU



MET'MAP, your aeronautical weather chart ! - Copyright ORBIFLY December 2007 - Disclaimer

ORBIFLY MET'MAP TEAM :

Programming & Development : Alexandra Zaïnal
Concept & original design : Baudouin d'Aumeries
Assistance for programming : Marc-Olivier Méhu
Technical & hardware support : Manuel Goepfert

Contact : metmap@orbifly.com




SOURCES & CREDITS :

   NOAA